createdAt,value
2022-12-03T00:00:25.852Z,28.05
2022-12-03T00:02:52.347Z,27.92
2022-12-03T00:05:18.974Z,24.40
2022-12-03T00:07:45.512Z,23.60
2022-12-03T00:10:12.520Z,26.30
2022-12-03T00:12:38.873Z,23.42
2022-12-03T00:15:07.125Z,25.05
2022-12-03T00:17:33.578Z,25.88
2022-12-03T00:20:00.161Z,23.25
2022-12-03T00:22:26.820Z,22.73
2022-12-03T00:24:53.629Z,23.08
2022-12-03T00:27:20.223Z,23.05
2022-12-03T00:29:46.611Z,26.25
2022-12-03T00:32:14.093Z,27.40
2022-12-03T00:34:40.506Z,29.92
2022-12-03T00:37:06.994Z,30.30
2022-12-03T00:39:33.389Z,27.02
2022-12-03T00:41:59.722Z,23.42
2022-12-03T00:44:26.257Z,29.10
2022-12-03T00:46:52.706Z,26.88
2022-12-03T00:49:19.094Z,25.63
2022-12-03T00:51:45.482Z,27.73
2022-12-03T00:54:12.040Z,24.02
2022-12-03T00:56:38.431Z,25.95
2022-12-03T00:59:04.901Z,28.15
2022-12-03T01:01:31.326Z,28.60
2022-12-03T01:03:57.798Z,32.38
2022-12-03T01:06:24.327Z,34.85
2022-12-03T01:08:50.712Z,26.35
2022-12-03T01:11:35.737Z,29.65
2022-12-03T01:16:28.575Z,25.13
2022-12-03T01:18:55.153Z,28.35
2022-12-03T01:21:21.595Z,28.17
2022-12-03T01:23:48.000Z,28.52
2022-12-03T01:26:15.430Z,25.55
2022-12-03T01:28:42.135Z,30.17
2022-12-03T01:31:27.475Z,31.45
2022-12-03T01:33:53.962Z,30.45
2022-12-03T01:36:20.323Z,29.83
2022-12-03T01:38:48.576Z,28.73
2022-12-03T01:41:17.614Z,32.33
2022-12-03T01:43:44.397Z,30.15
2022-12-03T01:46:16.308Z,25.33
2022-12-03T01:48:42.896Z,28.73
2022-12-03T01:51:09.360Z,24.15
2022-12-03T01:53:35.788Z,29.48
2022-12-03T01:56:02.179Z,27.98
2022-12-03T01:58:29.710Z,27.40
2022-12-03T02:00:58.407Z,28.70
2022-12-03T02:03:26.186Z,30.52
2022-12-03T02:05:53.212Z,26.02
2022-12-03T02:08:34.536Z,26.23
2022-12-03T02:11:13.187Z,32.97
2022-12-03T02:13:39.981Z,28.00
2022-12-03T02:16:06.735Z,30.00
2022-12-03T02:18:33.875Z,24.25
2022-12-03T02:21:15.830Z,30.30
2022-12-03T02:23:51.341Z,23.63
2022-12-03T02:26:18.067Z,22.52
2022-12-03T02:28:44.592Z,24.90
2022-12-03T02:31:11.205Z,24.83
2022-12-03T02:33:38.076Z,22.90
2022-12-03T02:36:04.855Z,23.92
2022-12-03T02:38:34.183Z,26.10
2022-12-03T02:41:06.972Z,21.33
2022-12-03T02:43:33.480Z,25.17
2022-12-03T02:46:02.743Z,22.23
2022-12-03T02:48:33.343Z,25.73
2022-12-03T02:51:03.594Z,21.20
2022-12-03T02:53:36.307Z,18.08
2022-12-03T02:56:03.803Z,21.77
2022-12-03T02:58:32.619Z,17.50
2022-12-03T03:01:01.568Z,22.05
2022-12-03T03:03:30.450Z,21.85
2022-12-03T03:05:58.161Z,18.92
2022-12-03T03:08:25.635Z,22.48
2022-12-03T03:10:52.513Z,18.77
2022-12-03T03:13:21.316Z,24.73
2022-12-03T03:15:48.038Z,18.35
2022-12-03T03:18:15.771Z,27.52
2022-12-03T03:20:42.564Z,21.95
2022-12-03T03:23:11.758Z,20.85
2022-12-03T03:25:44.005Z,20.70
2022-12-03T03:28:11.760Z,25.55
2022-12-03T03:30:40.243Z,22.92
2022-12-03T03:33:07.719Z,20.05
2022-12-03T03:35:34.959Z,20.45
2022-12-03T03:38:01.606Z,21.35
2022-12-03T03:40:28.667Z,22.92
2022-12-03T03:42:55.997Z,23.50
2022-12-03T03:45:27.372Z,20.27
2022-12-03T03:47:57.488Z,21.83
2022-12-03T03:50:24.670Z,23.40
2022-12-03T03:52:51.524Z,23.50
2022-12-03T03:55:20.271Z,20.08
2022-12-03T03:57:48.240Z,22.42
2022-12-03T04:00:15.391Z,22.75
2022-12-03T04:02:41.941Z,20.10
2022-12-03T04:05:15.806Z,20.50
2022-12-03T04:07:42.212Z,18.63
2022-12-03T04:10:38.545Z,21.92
2022-12-03T04:13:05.112Z,21.92
2022-12-03T04:15:32.066Z,25.67
2022-12-03T04:18:17.481Z,20.92
2022-12-03T04:20:43.935Z,21.92
2022-12-03T04:23:10.412Z,21.80
2022-12-03T04:25:55.241Z,18.77
2022-12-03T04:28:40.574Z,19.85
2022-12-03T04:31:25.957Z,21.02
2022-12-03T04:34:11.583Z,20.58
2022-12-03T04:36:38.776Z,23.15
2022-12-03T04:39:05.225Z,21.15
2022-12-03T04:41:31.583Z,25.27
2022-12-03T04:44:16.351Z,24.00
2022-12-03T04:46:42.755Z,22.20
2022-12-03T04:49:09.159Z,23.35
2022-12-03T04:51:35.684Z,22.73
2022-12-03T04:54:02.108Z,24.65
2022-12-03T04:56:28.471Z,22.35
2022-12-03T04:58:54.815Z,23.70
2022-12-03T05:01:21.225Z,25.55
2022-12-03T05:03:47.612Z,24.65
2022-12-03T05:06:14.024Z,25.25
2022-12-03T05:08:40.407Z,23.55
2022-12-03T05:11:06.802Z,23.85
2022-12-03T05:13:33.155Z,24.05
2022-12-03T05:15:59.531Z,22.23
2022-12-03T05:18:25.895Z,24.50
2022-12-03T05:20:53.639Z,24.13
2022-12-03T05:23:20.681Z,22.05
2022-12-03T05:25:47.192Z,22.83
2022-12-03T05:28:13.571Z,21.90
2022-12-03T05:30:40.251Z,24.00
2022-12-03T05:33:06.696Z,24.88
2022-12-03T05:35:33.163Z,24.25
2022-12-03T05:37:59.596Z,24.67
2022-12-03T05:40:26.034Z,24.60
2022-12-03T05:42:56.722Z,22.88
2022-12-03T05:45:31.263Z,23.67
2022-12-03T05:47:58.825Z,25.40
2022-12-03T05:50:28.039Z,21.83
2022-12-03T05:52:54.653Z,27.38
2022-12-03T05:55:21.417Z,22.75
2022-12-03T05:57:47.967Z,26.35
2022-12-03T06:00:17.528Z,24.63
2022-12-03T06:02:44.425Z,24.17
2022-12-03T06:05:12.305Z,27.73
2022-12-03T06:07:39.099Z,25.88
2022-12-03T06:10:08.344Z,25.63
2022-12-03T06:12:34.808Z,24.25
2022-12-03T06:15:01.247Z,28.15
2022-12-03T06:17:27.803Z,26.23
2022-12-03T06:19:54.215Z,26.17
2022-12-03T06:22:41.927Z,23.23
2022-12-03T06:25:09.050Z,23.67
2022-12-03T06:27:35.427Z,24.77
2022-12-03T06:30:02.300Z,22.33
2022-12-03T06:32:28.738Z,25.08
2022-12-03T06:34:55.481Z,24.17
2022-12-03T06:37:22.106Z,26.73
2022-12-03T06:39:48.496Z,24.27
2022-12-03T06:42:14.934Z,25.55
2022-12-03T06:44:41.293Z,21.08
2022-12-03T06:47:07.643Z,26.45
2022-12-03T06:49:34.114Z,25.60
2022-12-03T06:52:00.556Z,24.58
2022-12-03T06:54:26.984Z,21.15
2022-12-03T06:56:53.432Z,24.52
2022-12-03T06:59:19.811Z,23.15
2022-12-03T07:01:46.274Z,23.23
2022-12-03T07:04:12.764Z,25.27
2022-12-03T07:06:39.179Z,24.60
2022-12-03T07:09:05.708Z,21.05
2022-12-03T07:11:32.126Z,24.73
2022-12-03T07:14:05.581Z,23.35
2022-12-03T07:16:32.894Z,20.40
2022-12-03T07:18:59.435Z,26.30
2022-12-03T07:21:25.859Z,29.67
2022-12-03T07:23:52.296Z,21.63
2022-12-03T07:26:19.262Z,29.20
2022-12-03T07:28:46.670Z,25.73
2022-12-03T07:31:13.118Z,26.30
2022-12-03T07:33:39.562Z,25.95
2022-12-03T07:36:06.279Z,26.20
2022-12-03T07:38:32.680Z,26.83
2022-12-03T07:40:59.075Z,29.50
2022-12-03T07:43:25.627Z,26.75
2022-12-03T07:45:52.180Z,25.88
2022-12-03T07:48:18.559Z,27.15
2022-12-03T07:50:45.050Z,27.15
2022-12-03T07:53:11.410Z,26.02
2022-12-03T07:55:37.843Z,24.95
2022-12-03T07:58:04.304Z,24.10
2022-12-03T08:00:30.740Z,25.13
2022-12-03T08:02:57.223Z,29.35
2022-12-03T08:05:23.579Z,25.98
2022-12-03T08:07:50.244Z,26.60
2022-12-03T08:10:16.815Z,23.13
2022-12-03T08:12:43.321Z,26.02
2022-12-03T08:15:11.703Z,26.02
2022-12-03T08:17:40.328Z,25.50
2022-12-03T08:20:21.634Z,27.00
2022-12-03T08:22:50.484Z,25.95
2022-12-03T08:25:27.263Z,28.48
2022-12-03T08:27:59.977Z,29.25
2022-12-03T08:30:26.428Z,25.48
2022-12-03T08:32:53.629Z,27.35
2022-12-03T08:35:26.623Z,27.30
2022-12-03T08:38:01.672Z,30.27
2022-12-03T08:40:40.740Z,25.92
2022-12-03T08:43:28.256Z,28.00
2022-12-03T08:45:56.765Z,28.35
2022-12-03T08:48:34.003Z,28.42
2022-12-03T08:51:04.605Z,24.98
2022-12-03T08:53:33.699Z,26.10
2022-12-03T08:56:03.196Z,28.13
2022-12-03T08:58:46.234Z,28.85
2022-12-03T09:01:12.653Z,24.55
2022-12-03T09:03:50.086Z,26.70
2022-12-03T09:06:16.767Z,26.90
2022-12-03T09:08:43.212Z,26.33
2022-12-03T09:11:09.579Z,28.38
2022-12-03T09:13:36.048Z,24.60
2022-12-03T09:16:02.450Z,23.13
2022-12-03T09:18:28.860Z,27.20
2022-12-03T09:20:56.436Z,29.90
2022-12-03T09:23:23.346Z,26.17
2022-12-03T09:25:49.749Z,27.40
2022-12-03T09:28:16.180Z,26.17
2022-12-03T09:30:42.637Z,25.33
2022-12-03T09:33:10.488Z,26.60
2022-12-03T09:35:36.871Z,24.90
2022-12-03T09:38:03.251Z,27.45
2022-12-03T09:40:29.634Z,24.27
2022-12-03T09:42:58.632Z,27.70
2022-12-03T09:45:25.331Z,27.70
2022-12-03T09:47:51.930Z,28.73
2022-12-03T09:50:26.979Z,30.20
2022-12-03T09:52:56.843Z,27.58
2022-12-03T09:55:26.148Z,27.88
2022-12-03T09:57:53.903Z,25.85
2022-12-03T10:00:26.128Z,28.00
2022-12-03T10:02:56.332Z,25.50
2022-12-03T10:05:23.648Z,27.67
2022-12-03T10:07:51.543Z,25.38
2022-12-03T10:10:23.434Z,25.77
2022-12-03T10:12:53.228Z,27.30
2022-12-03T10:15:22.945Z,24.80
2022-12-03T10:17:51.742Z,24.80
2022-12-03T10:20:21.006Z,22.73
2022-12-03T10:22:48.783Z,27.23
2022-12-03T10:25:18.874Z,25.80
2022-12-03T10:28:25.974Z,27.60
2022-12-03T10:30:56.380Z,23.27
2022-12-03T10:33:29.543Z,25.15
2022-12-03T10:35:55.930Z,22.83
2022-12-03T10:38:23.187Z,24.15
2022-12-03T10:40:50.046Z,25.30
2022-12-03T10:43:19.273Z,26.80
2022-12-03T10:45:47.370Z,22.10
2022-12-03T10:48:14.947Z,25.92
2022-12-03T10:50:53.332Z,24.83
2022-12-03T10:53:23.144Z,27.02
2022-12-03T10:55:51.720Z,25.27
2022-12-03T10:58:25.673Z,24.23
2022-12-03T11:00:55.041Z,28.45
2022-12-03T11:03:26.744Z,26.88
2022-12-03T11:05:55.511Z,30.50
2022-12-03T11:08:34.730Z,30.20
2022-12-03T11:11:02.689Z,25.75
2022-12-03T11:13:35.020Z,24.73
2022-12-03T11:16:03.129Z,23.38
2022-12-03T11:18:35.744Z,24.27
2022-12-03T11:21:02.052Z,24.30
2022-12-03T11:23:46.781Z,23.20
2022-12-03T11:26:18.921Z,27.65
2022-12-03T11:28:45.701Z,26.00
2022-12-03T11:31:34.062Z,26.05
2022-12-03T11:34:18.539Z,26.15
2022-12-03T11:37:09.940Z,26.20
2022-12-03T11:39:51.756Z,28.05
2022-12-03T11:42:27.553Z,26.98
2022-12-03T11:45:06.100Z,30.02
2022-12-03T11:47:43.152Z,28.55
2022-12-03T11:50:48.316Z,27.90
2022-12-03T11:53:20.104Z,28.23
2022-12-03T11:56:04.170Z,29.88
2022-12-03T11:58:31.190Z,29.85
2022-12-03T12:01:00.528Z,28.33
2022-12-03T12:03:35.636Z,26.55
2022-12-03T12:06:18.311Z,29.00
2022-12-03T12:08:50.948Z,26.60
2022-12-03T12:11:26.869Z,29.63
2022-12-03T12:13:56.264Z,34.40
2022-12-03T12:16:42.535Z,28.23
2022-12-03T12:19:27.858Z,25.95
2022-12-03T12:21:55.039Z,27.38
2022-12-03T12:24:28.532Z,26.70
2022-12-03T12:26:56.162Z,28.67
2022-12-03T12:29:22.582Z,31.77
2022-12-03T12:31:53.923Z,32.08
2022-12-03T12:34:20.608Z,25.60
2022-12-03T12:36:47.043Z,28.15
2022-12-03T12:39:15.372Z,29.98
2022-12-03T12:41:42.761Z,32.55
2022-12-03T12:44:11.035Z,28.70
2022-12-03T12:46:47.618Z,30.50
2022-12-03T12:49:15.402Z,26.73
2022-12-03T12:51:46.732Z,27.08
2022-12-03T12:54:15.196Z,31.77
2022-12-03T12:56:44.834Z,29.88
2022-12-03T12:59:14.181Z,28.33
2022-12-03T13:01:43.794Z,29.65
2022-12-03T13:04:19.167Z,28.80
2022-12-03T13:06:47.812Z,30.80
2022-12-03T13:09:22.860Z,28.42
2022-12-03T13:12:01.047Z,29.52
2022-12-03T13:14:33.032Z,30.75
2022-12-03T13:17:01.395Z,34.10
2022-12-03T13:19:30.643Z,28.55
2022-12-03T13:22:00.547Z,33.15
2022-12-03T13:24:35.836Z,31.52
2022-12-03T13:27:21.631Z,35.28
2022-12-03T13:30:16.123Z,30.38
2022-12-03T13:32:43.239Z,28.63
2022-12-03T13:35:09.592Z,30.23
2022-12-03T13:37:37.299Z,29.83
2022-12-03T13:40:25.071Z,31.05
2022-12-03T13:42:53.022Z,31.95
2022-12-03T13:45:19.364Z,32.78
2022-12-03T13:47:48.591Z,34.95
2022-12-03T13:50:37.431Z,31.05
2022-12-03T13:53:19.390Z,32.30
2022-12-03T13:55:47.971Z,34.17
2022-12-03T13:58:14.335Z,30.92
2022-12-03T14:00:40.752Z,30.80
2022-12-03T14:03:07.242Z,34.17
2022-12-03T14:05:33.592Z,34.53
2022-12-03T14:08:02.308Z,32.72
2022-12-03T14:10:29.714Z,26.35
2022-12-03T14:12:56.830Z,31.13
2022-12-03T14:15:24.776Z,30.30
2022-12-03T14:17:51.127Z,30.20
2022-12-03T14:20:18.364Z,36.30
2022-12-03T14:22:45.202Z,33.05
2022-12-03T14:25:11.883Z,32.13
2022-12-03T14:27:38.283Z,28.15
2022-12-03T14:30:05.475Z,30.13
2022-12-03T14:32:31.967Z,31.17
2022-12-03T14:34:58.299Z,33.70
2022-12-03T14:37:24.717Z,30.25
2022-12-03T14:39:51.251Z,31.67
2022-12-03T14:42:18.314Z,26.77
2022-12-03T14:44:49.697Z,26.95
2022-12-03T14:47:18.729Z,32.42
2022-12-03T14:49:45.325Z,30.33
2022-12-03T14:52:12.697Z,28.08
2022-12-03T14:54:42.128Z,27.08
2022-12-03T14:57:09.794Z,28.42
2022-12-03T14:59:36.165Z,27.80
2022-12-03T15:02:02.759Z,31.98
2022-12-03T15:04:29.197Z,36.58
2022-12-03T15:06:55.695Z,32.78
2022-12-03T15:09:22.049Z,25.13
2022-12-03T15:11:48.527Z,26.92
2022-12-03T15:14:15.345Z,28.83
2022-12-03T15:16:41.760Z,34.13
2022-12-03T15:19:08.227Z,31.52
2022-12-03T15:21:35.012Z,29.20
2022-12-03T15:24:02.871Z,35.67
2022-12-03T15:26:29.723Z,31.38
2022-12-03T15:28:56.074Z,27.73
2022-12-03T15:31:22.502Z,28.92
2022-12-03T15:33:48.899Z,29.33
2022-12-03T15:36:15.456Z,32.22
2022-12-03T15:38:41.924Z,28.42
2022-12-03T15:41:28.884Z,30.25
2022-12-03T15:43:57.697Z,30.85
2022-12-03T15:46:24.853Z,31.58
2022-12-03T15:48:51.716Z,27.25
2022-12-03T15:51:18.141Z,29.65
2022-12-03T15:53:44.634Z,28.88
2022-12-03T15:56:12.078Z,29.58
2022-12-03T15:58:39.941Z,31.70
2022-12-03T16:01:07.619Z,33.28
2022-12-03T16:03:34.260Z,31.20
2022-12-03T16:06:00.740Z,29.13
2022-12-03T16:08:27.244Z,30.30
2022-12-03T16:10:53.681Z,30.63
2022-12-03T16:13:20.091Z,31.40
2022-12-03T16:15:46.511Z,28.52
2022-12-03T16:18:12.916Z,30.88
2022-12-03T16:20:39.263Z,26.42
2022-12-03T16:23:05.707Z,36.22
2022-12-03T16:25:32.133Z,33.92
2022-12-03T16:27:58.479Z,31.42
2022-12-03T16:30:24.871Z,36.33
2022-12-03T16:32:51.713Z,32.08
2022-12-03T16:35:18.200Z,35.22
2022-12-03T16:37:44.614Z,31.20
2022-12-03T16:40:11.480Z,35.53
2022-12-03T16:42:37.859Z,34.72
2022-12-03T16:45:04.551Z,48.08
2022-12-03T16:47:34.129Z,29.75
2022-12-03T16:50:07.641Z,33.75
2022-12-03T16:52:34.992Z,34.22
2022-12-03T16:55:01.651Z,34.38
2022-12-03T16:57:33.478Z,31.88
2022-12-03T17:00:00.807Z,35.13
2022-12-03T17:02:27.678Z,29.98
2022-12-03T17:04:54.322Z,29.98
2022-12-03T17:07:20.660Z,36.88
2022-12-03T17:09:47.122Z,36.42
2022-12-03T17:12:13.488Z,39.92
2022-12-03T17:14:39.938Z,36.58
2022-12-03T17:17:06.304Z,40.47
2022-12-03T17:19:32.714Z,35.15
2022-12-03T17:21:59.778Z,42.75
2022-12-03T17:24:26.220Z,37.58
2022-12-03T17:26:52.621Z,41.42
2022-12-03T17:29:19.190Z,40.47
2022-12-03T17:31:45.732Z,41.65
2022-12-03T17:34:12.142Z,38.20
2022-12-03T17:36:38.543Z,34.70
2022-12-03T17:39:04.908Z,40.17
2022-12-03T17:41:31.332Z,36.63
2022-12-03T17:43:57.760Z,37.20
2022-12-03T17:46:24.210Z,36.80
2022-12-03T17:48:50.670Z,36.97
2022-12-03T17:51:19.195Z,36.25
2022-12-03T17:53:45.559Z,36.35
2022-12-03T17:56:12.164Z,39.90
2022-12-03T17:58:38.583Z,39.28
2022-12-03T18:01:05.714Z,38.50
2022-12-03T18:03:32.267Z,36.53
2022-12-03T18:05:58.717Z,42.80
2022-12-03T18:08:25.132Z,43.80
2022-12-03T18:10:51.498Z,44.40
2022-12-03T18:13:17.965Z,47.72
2022-12-03T18:15:44.471Z,48.58
2022-12-03T18:18:11.189Z,45.45
2022-12-03T18:20:37.943Z,40.72
2022-12-03T18:23:05.066Z,44.88
2022-12-03T18:25:31.627Z,46.38
2022-12-03T18:27:58.052Z,44.13
2022-12-03T18:30:24.554Z,41.95
2022-12-03T18:32:50.973Z,42.72
2022-12-03T18:35:18.056Z,48.00
2022-12-03T18:37:44.572Z,44.90
2022-12-03T18:40:23.636Z,46.22
2022-12-03T18:42:50.074Z,44.33
2022-12-03T18:45:16.817Z,43.72
2022-12-03T18:47:43.565Z,39.15
2022-12-03T18:50:10.940Z,39.28
2022-12-03T18:52:37.646Z,44.28
2022-12-03T18:55:05.647Z,39.67
2022-12-03T18:57:32.069Z,35.45
2022-12-03T18:59:58.644Z,34.65
2022-12-03T19:03:01.223Z,39.88
2022-12-03T19:05:11.680Z,37.83
2022-12-03T19:07:38.254Z,40.22
2022-12-03T19:10:05.375Z,43.72
2022-12-03T19:12:33.002Z,37.80
2022-12-03T19:14:59.373Z,38.67
2022-12-03T19:17:27.105Z,38.10
2022-12-03T19:19:54.356Z,39.53
2022-12-03T19:22:21.276Z,43.22
2022-12-03T19:24:47.717Z,41.88
2022-12-03T19:27:14.338Z,40.45
2022-12-03T19:29:41.488Z,38.22
2022-12-03T19:32:08.851Z,35.63
2022-12-03T19:34:35.356Z,41.28
2022-12-03T19:37:01.763Z,40.55
2022-12-03T19:39:28.138Z,37.13
2022-12-03T19:41:54.509Z,38.20
2022-12-03T19:44:20.955Z,37.45
2022-12-03T19:46:49.459Z,33.80
2022-12-03T19:49:18.449Z,36.22
2022-12-03T19:51:45.056Z,37.10
2022-12-03T19:54:11.639Z,34.90
2022-12-03T19:56:38.192Z,38.88
2022-12-03T19:59:05.318Z,36.95
2022-12-03T20:01:34.324Z,36.92
2022-12-03T20:04:03.033Z,39.67
2022-12-03T20:06:32.119Z,36.17
2022-12-03T20:09:01.363Z,40.15
2022-12-03T20:11:31.110Z,37.08
2022-12-03T20:13:59.971Z,36.13
2022-12-03T20:16:27.692Z,37.92
2022-12-03T20:18:59.776Z,36.53
2022-12-03T20:21:28.348Z,38.55
2022-12-03T20:23:54.802Z,35.25
2022-12-03T20:26:22.178Z,34.35
2022-12-03T20:28:49.068Z,36.17
2022-12-03T20:31:18.746Z,34.33
2022-12-03T20:33:47.809Z,37.22
2022-12-03T20:36:16.133Z,37.72
2022-12-03T20:38:42.855Z,37.92
2022-12-03T20:41:11.819Z,32.55
2022-12-03T20:43:38.625Z,31.92
2022-12-03T20:46:11.428Z,32.85
2022-12-03T20:48:38.662Z,30.02
2022-12-03T20:51:07.000Z,29.58
2022-12-03T20:53:34.253Z,34.60
2022-12-03T20:56:02.034Z,31.77
2022-12-03T20:58:29.626Z,30.45
2022-12-03T21:01:09.100Z,30.55
2022-12-03T21:03:38.889Z,35.88
2022-12-03T21:06:05.851Z,26.70
2022-12-03T21:08:41.191Z,36.92
2022-12-03T21:11:20.745Z,39.47
2022-12-03T21:13:47.909Z,39.35
2022-12-03T21:16:18.405Z,37.80
2022-12-03T21:18:45.341Z,39.85
2022-12-03T21:21:13.410Z,35.90
2022-12-03T21:23:39.772Z,36.88
2022-12-03T21:26:17.638Z,37.25
2022-12-03T21:28:50.461Z,45.08
2022-12-03T21:31:20.197Z,42.50
2022-12-03T21:33:46.789Z,38.40
2022-12-03T21:36:15.829Z,39.53
2022-12-03T21:38:44.732Z,37.72
2022-12-03T21:41:12.228Z,37.75
2022-12-03T21:43:38.680Z,32.22
2022-12-03T21:47:11.891Z,32.92
2022-12-03T21:48:56.029Z,32.67
2022-12-03T21:51:22.474Z,36.50
2022-12-03T21:53:48.964Z,38.50
2022-12-03T21:56:17.473Z,30.15
2022-12-03T21:58:44.970Z,33.15
2022-12-03T22:01:11.967Z,37.78
2022-12-03T22:03:38.476Z,32.53
2022-12-03T22:06:05.001Z,33.25
2022-12-03T22:08:31.390Z,36.97
2022-12-03T22:10:57.801Z,38.03
2022-12-03T22:13:24.144Z,38.40
2022-12-03T22:15:50.590Z,38.15
2022-12-03T22:18:17.073Z,43.30
2022-12-03T22:20:43.507Z,40.95
2022-12-03T22:23:09.935Z,40.90
2022-12-03T22:25:36.307Z,41.75
2022-12-03T22:28:02.756Z,40.10
2022-12-03T22:30:29.210Z,37.80
2022-12-03T22:32:55.595Z,37.20
2022-12-03T22:35:22.036Z,38.25
2022-12-03T22:37:48.455Z,39.30
2022-12-03T22:40:15.136Z,37.47
2022-12-03T22:42:45.119Z,38.15
2022-12-03T22:45:14.268Z,38.55
2022-12-03T22:47:40.643Z,40.85
2022-12-03T22:50:07.913Z,34.30
2022-12-03T22:52:34.322Z,39.83
2022-12-03T22:55:00.774Z,42.00
2022-12-03T22:57:27.155Z,35.00
2022-12-03T22:59:53.811Z,40.65
2022-12-03T23:02:20.542Z,36.20
2022-12-03T23:04:46.948Z,40.03
2022-12-03T23:07:13.346Z,45.40
2022-12-03T23:09:39.741Z,39.78
2022-12-03T23:12:07.416Z,41.65
2022-12-03T23:14:33.897Z,43.13
2022-12-03T23:17:00.306Z,40.38
2022-12-03T23:19:27.084Z,46.00
2022-12-03T23:21:53.486Z,38.25
2022-12-03T23:24:19.836Z,42.90
2022-12-03T23:26:46.215Z,41.08
2022-12-03T23:29:12.621Z,40.42
2022-12-03T23:31:39.067Z,45.97
2022-12-03T23:34:05.668Z,41.58
2022-12-03T23:36:33.117Z,43.67
2022-12-03T23:38:59.808Z,47.78
2022-12-03T23:41:26.396Z,41.40
2022-12-03T23:43:53.104Z,38.05
2022-12-03T23:46:22.190Z,43.28
2022-12-03T23:48:49.189Z,45.45
2022-12-03T23:51:19.142Z,43.05
2022-12-03T23:53:46.315Z,45.42
2022-12-03T23:56:15.547Z,45.20
2022-12-03T23:58:42.596Z,46.05
